Terminal Aerodrome Forecast
Issued by NWS Melbourne, FL

Home | Current Version | Previous Version | Text Only | Print | Product List | Glossary On
Versions: 1 2 3 4 5 6 7 8 9 10 11 12 13 14 15 16
678
FTUS42 KMLB 261734
TAFDAB
TAF
KDAB 261734Z 2618/2718 06015G20KT P6SM SCT030 SCT070
     FM261900 06012G18KT P6SM VCSH SCT030 SCT050
     FM262300 05010KT P6SM SCT030=

USA.gov is the U.S. government's official web portal to all federal, state and local government web resources and services.